sensor_id;sensor_type;location;lat;lon;timestamp;temperature;humidity
27559;DHT22;15002;52.028;5.670;2024-03-25T00:00:12;8.20;99.90
27559;DHT22;15002;52.028;5.670;2024-03-25T00:02:39;8.20;99.90
27559;DHT22;15002;52.028;5.670;2024-03-25T00:05:05;8.30;99.90
27559;DHT22;15002;52.028;5.670;2024-03-25T00:07:32;8.20;99.90
27559;DHT22;15002;52.028;5.670;2024-03-25T00:09:58;8.10;99.90
27559;DHT22;15002;52.028;5.670;2024-03-25T00:12:25;8.10;99.90
27559;DHT22;15002;52.028;5.670;2024-03-25T00:14:51;8.10;99.90
27559;DHT22;15002;52.028;5.670;2024-03-25T00:17:17;8.00;99.90
27559;DHT22;15002;52.028;5.670;2024-03-25T00:19:43;8.00;99.90
27559;DHT22;15002;52.028;5.670;2024-03-25T00:22:13;8.00;99.90
27559;DHT22;15002;52.028;5.670;2024-03-25T00:24:39;8.00;99.90
27559;DHT22;15002;52.028;5.670;2024-03-25T00:27:05;7.90;99.90
27559;DHT22;15002;52.028;5.670;2024-03-25T00:29:30;7.90;99.90
27559;DHT22;15002;52.028;5.670;2024-03-25T00:31:56;7.90;99.90
27559;DHT22;15002;52.028;5.670;2024-03-25T00:34:21;8.00;99.90
27559;DHT22;15002;52.028;5.670;2024-03-25T00:36:47;8.00;99.90
27559;DHT22;15002;52.028;5.670;2024-03-25T00:39:13;7.90;99.90
27559;DHT22;15002;52.028;5.670;2024-03-25T00:41:39;7.80;99.90
27559;DHT22;15002;52.028;5.670;2024-03-25T00:44:04;7.80;99.90
27559;DHT22;15002;52.028;5.670;2024-03-25T00:46:30;7.80;99.90
27559;DHT22;15002;52.028;5.670;2024-03-25T00:48:56;7.80;99.90
27559;DHT22;15002;52.028;5.670;2024-03-25T00:51:21;7.80;99.90
27559;DHT22;15002;52.028;5.670;2024-03-25T00:53:47;7.80;99.90
27559;DHT22;15002;52.028;5.670;2024-03-25T00:56:13;7.70;99.90
27559;DHT22;15002;52.028;5.670;2024-03-25T00:58:38;7.60;99.90
27559;DHT22;15002;52.028;5.670;2024-03-25T01:01:04;7.60;99.90
27559;DHT22;15002;52.028;5.670;2024-03-25T01:03:30;7.50;99.90
27559;DHT22;15002;52.028;5.670;2024-03-25T01:05:55;7.50;99.90
27559;DHT22;15002;52.028;5.670;2024-03-25T01:08:21;7.60;99.90
27559;DHT22;15002;52.028;5.670;2024-03-25T01:10:46;7.50;99.90
27559;DHT22;15002;52.028;5.670;2024-03-25T01:13:12;7.50;99.90
27559;DHT22;15002;52.028;5.670;2024-03-25T01:15:38;7.50;99.90
27559;DHT22;15002;52.028;5.670;2024-03-25T01:18:03;7.30;99.90
27559;DHT22;15002;52.028;5.670;2024-03-25T01:20:29;7.30;99.90
27559;DHT22;15002;52.028;5.670;2024-03-25T01:22:55;7.20;99.90
27559;DHT22;15002;52.028;5.670;2024-03-25T01:25:20;7.30;99.90
27559;DHT22;15002;52.028;5.670;2024-03-25T01:27:46;7.30;99.90
27559;DHT22;15002;52.028;5.670;2024-03-25T01:30:12;7.20;99.90
27559;DHT22;15002;52.028;5.670;2024-03-25T01:32:37;7.20;99.90
27559;DHT22;15002;52.028;5.670;2024-03-25T01:35:03;7.10;99.90
27559;DHT22;15002;52.028;5.670;2024-03-25T01:37:29;7.10;99.90
27559;DHT22;15002;52.028;5.670;2024-03-25T01:39:54;7.10;99.90
27559;DHT22;15002;52.028;5.670;2024-03-25T01:42:20;7.10;99.90
27559;DHT22;15002;52.028;5.670;2024-03-25T01:44:46;7.10;99.90
27559;DHT22;15002;52.028;5.670;2024-03-25T01:47:12;7.10;99.90
27559;DHT22;15002;52.028;5.670;2024-03-25T01:49:38;7.00;99.90
27559;DHT22;15002;52.028;5.670;2024-03-25T01:52:04;7.00;99.90
27559;DHT22;15002;52.028;5.670;2024-03-25T01:54:31;6.90;99.90
27559;DHT22;15002;52.028;5.670;2024-03-25T01:56:57;6.90;99.90
27559;DHT22;15002;52.028;5.670;2024-03-25T01:59:25;7.00;99.90
27559;DHT22;15002;52.028;5.670;2024-03-25T02:01:50;7.00;99.90
27559;DHT22;15002;52.028;5.670;2024-03-25T02:04:16;7.00;99.90
27559;DHT22;15002;52.028;5.670;2024-03-25T02:06:42;7.10;99.90
27559;DHT22;15002;52.028;5.670;2024-03-25T02:09:10;7.00;99.90
27559;DHT22;15002;52.028;5.670;2024-03-25T02:11:38;7.00;99.90
27559;DHT22;15002;52.028;5.670;2024-03-25T02:14:05;6.90;99.90
27559;DHT22;15002;52.028;5.670;2024-03-25T02:16:31;7.00;99.90
27559;DHT22;15002;52.028;5.670;2024-03-25T02:18:56;7.00;99.90
27559;DHT22;15002;52.028;5.670;2024-03-25T02:21:22;6.90;99.90
27559;DHT22;15002;52.028;5.670;2024-03-25T02:23:48;7.00;99.90
27559;DHT22;15002;52.028;5.670;2024-03-25T02:26:16;7.00;99.90
27559;DHT22;15002;52.028;5.670;2024-03-25T02:28:41;7.10;99.90
27559;DHT22;15002;52.028;5.670;2024-03-25T02:31:07;7.10;99.90
27559;DHT22;15002;52.028;5.670;2024-03-25T02:33:32;7.10;99.90
27559;DHT22;15002;52.028;5.670;2024-03-25T02:35:58;7.00;99.90
27559;DHT22;15002;52.028;5.670;2024-03-25T02:38:24;7.10;99.90
27559;DHT22;15002;52.028;5.670;2024-03-25T02:40:50;7.10;99.90
27559;DHT22;15002;52.028;5.670;2024-03-25T02:43:17;7.10;99.90
27559;DHT22;15002;52.028;5.670;2024-03-25T02:45:45;7.10;99.90
27559;DHT22;15002;52.028;5.670;2024-03-25T02:48:10;7.20;99.90
27559;DHT22;15002;52.028;5.670;2024-03-25T02:50:36;7.20;99.90
27559;DHT22;15002;52.028;5.670;2024-03-25T02:53:01;7.10;99.90
27559;DHT22;15002;52.028;5.670;2024-03-25T02:55:27;7.10;99.90
27559;DHT22;15002;52.028;5.670;2024-03-25T02:57:53;7.20;99.90
27559;DHT22;15002;52.028;5.670;2024-03-25T03:00:18;7.20;99.90
27559;DHT22;15002;52.028;5.670;2024-03-25T03:02:44;7.10;99.90
27559;DHT22;15002;52.028;5.670;2024-03-25T03:05:10;7.10;99.90
27559;DHT22;15002;52.028;5.670;2024-03-25T03:07:35;7.00;99.90
27559;DHT22;15002;52.028;5.670;2024-03-25T03:10:01;6.90;99.90
27559;DHT22;15002;52.028;5.670;2024-03-25T03:12:26;6.90;99.90
27559;DHT22;15002;52.028;5.670;2024-03-25T03:14:52;6.90;99.90
27559;DHT22;15002;52.028;5.670;2024-03-25T03:17:18;6.80;99.90
27559;DHT22;15002;52.028;5.670;2024-03-25T03:19:43;6.80;99.90
27559;DHT22;15002;52.028;5.670;2024-03-25T03:22:10;6.70;99.90
27559;DHT22;15002;52.028;5.670;2024-03-25T03:24:36;6.70;99.90
27559;DHT22;15002;52.028;5.670;2024-03-25T03:27:01;6.70;99.90
27559;DHT22;15002;52.028;5.670;2024-03-25T03:29:27;6.70;99.90
27559;DHT22;15002;52.028;5.670;2024-03-25T03:31:52;6.70;99.90
27559;DHT22;15002;52.028;5.670;2024-03-25T03:34:18;6.60;99.90
27559;DHT22;15002;52.028;5.670;2024-03-25T03:36:44;6.90;99.90
27559;DHT22;15002;52.028;5.670;2024-03-25T03:39:09;6.90;99.90
27559;DHT22;15002;52.028;5.670;2024-03-25T03:41:35;6.80;99.90
27559;DHT22;15002;52.028;5.670;2024-03-25T03:44:01;6.70;99.90
27559;DHT22;15002;52.028;5.670;2024-03-25T03:46:27;6.60;99.90
27559;DHT22;15002;52.028;5.670;2024-03-25T03:48:52;6.70;99.90
27559;DHT22;15002;52.028;5.670;2024-03-25T03:51:18;6.70;99.90
27559;DHT22;15002;52.028;5.670;2024-03-25T03:53:43;6.60;99.90
27559;DHT22;15002;52.028;5.670;2024-03-25T03:56:09;6.60;99.90
27559;DHT22;15002;52.028;5.670;2024-03-25T03:58:35;6.50;99.90
27559;DHT22;15002;52.028;5.670;2024-03-25T04:01:01;6.40;99.90
27559;DHT22;15002;52.028;5.670;2024-03-25T04:03:26;6.40;99.90
27559;DHT22;15002;52.028;5.670;2024-03-25T04:05:52;6.20;99.90
27559;DHT22;15002;52.028;5.670;2024-03-25T04:08:18;6.10;99.90
27559;DHT22;15002;52.028;5.670;2024-03-25T04:10:45;6.00;99.90
27559;DHT22;15002;52.028;5.670;2024-03-25T04:13:11;6.20;99.90
27559;DHT22;15002;52.028;5.670;2024-03-25T04:15:38;6.20;99.90
27559;DHT22;15002;52.028;5.670;2024-03-25T04:18:05;6.20;99.90
27559;DHT22;15002;52.028;5.670;2024-03-25T04:20:41;6.20;99.90
27559;DHT22;15002;52.028;5.670;2024-03-25T04:23:07;6.00;99.90
27559;DHT22;15002;52.028;5.670;2024-03-25T04:25:34;5.90;99.90
27559;DHT22;15002;52.028;5.670;2024-03-25T04:28:03;5.90;99.90
27559;DHT22;15002;52.028;5.670;2024-03-25T04:30:29;6.00;99.90
27559;DHT22;15002;52.028;5.670;2024-03-25T04:32:54;6.20;99.90
27559;DHT22;15002;52.028;5.670;2024-03-25T04:35:20;6.20;99.90
27559;DHT22;15002;52.028;5.670;2024-03-25T04:37:45;6.30;99.90
27559;DHT22;15002;52.028;5.670;2024-03-25T04:40:11;6.10;99.90
27559;DHT22;15002;52.028;5.670;2024-03-25T04:42:40;6.10;99.90
27559;DHT22;15002;52.028;5.670;2024-03-25T04:45:06;6.10;99.90
27559;DHT22;15002;52.028;5.670;2024-03-25T04:47:32;6.10;99.90
27559;DHT22;15002;52.028;5.670;2024-03-25T04:49:57;6.00;99.90
27559;DHT22;15002;52.028;5.670;2024-03-25T04:52:23;5.80;99.90
27559;DHT22;15002;52.028;5.670;2024-03-25T04:54:49;5.70;99.90
27559;DHT22;15002;52.028;5.670;2024-03-25T04:57:15;5.60;99.90
27559;DHT22;15002;52.028;5.670;2024-03-25T04:59:41;5.50;99.90
27559;DHT22;15002;52.028;5.670;2024-03-25T05:02:07;5.40;99.90
27559;DHT22;15002;52.028;5.670;2024-03-25T05:04:32;5.50;99.90
27559;DHT22;15002;52.028;5.670;2024-03-25T05:06:58;5.40;99.90
27559;DHT22;15002;52.028;5.670;2024-03-25T05:09:24;5.40;99.90
27559;DHT22;15002;52.028;5.670;2024-03-25T05:11:49;5.40;99.90
27559;DHT22;15002;52.028;5.670;2024-03-25T05:14:15;5.40;99.90
27559;DHT22;15002;52.028;5.670;2024-03-25T05:16:41;5.40;99.90
27559;DHT22;15002;52.028;5.670;2024-03-25T05:19:07;5.40;99.90
27559;DHT22;15002;52.028;5.670;2024-03-25T05:21:32;5.40;99.90
27559;DHT22;15002;52.028;5.670;2024-03-25T05:23:58;5.40;99.90
27559;DHT22;15002;52.028;5.670;2024-03-25T05:26:24;5.40;99.90
27559;DHT22;15002;52.028;5.670;2024-03-25T05:28:54;5.50;99.90
27559;DHT22;15002;52.028;5.670;2024-03-25T05:31:19;5.50;99.90
27559;DHT22;15002;52.028;5.670;2024-03-25T05:33:45;5.60;99.90
27559;DHT22;15002;52.028;5.670;2024-03-25T05:36:11;5.50;99.90
27559;DHT22;15002;52.028;5.670;2024-03-25T05:38:36;5.40;99.90
27559;DHT22;15002;52.028;5.670;2024-03-25T05:41:02;5.40;99.90
27559;DHT22;15002;52.028;5.670;2024-03-25T05:43:28;5.50;99.90
27559;DHT22;15002;52.028;5.670;2024-03-25T05:45:54;5.60;99.90
27559;DHT22;15002;52.028;5.670;2024-03-25T05:48:20;5.60;99.90
27559;DHT22;15002;52.028;5.670;2024-03-25T05:50:46;5.70;99.90
27559;DHT22;15002;52.028;5.670;2024-03-25T05:53:12;5.70;99.90
27559;DHT22;15002;52.028;5.670;2024-03-25T05:55:38;5.90;99.90
27559;DHT22;15002;52.028;5.670;2024-03-25T05:58:04;6.00;99.90
27559;DHT22;15002;52.028;5.670;2024-03-25T06:00:30;6.00;99.90
27559;DHT22;15002;52.028;5.670;2024-03-25T06:02:58;6.20;99.90
27559;DHT22;15002;52.028;5.670;2024-03-25T06:05:24;6.30;99.90
27559;DHT22;15002;52.028;5.670;2024-03-25T06:07:49;6.20;99.90
27559;DHT22;15002;52.028;5.670;2024-03-25T06:10:15;6.40;99.90
27559;DHT22;15002;52.028;5.670;2024-03-25T06:12:41;6.60;99.90
27559;DHT22;15002;52.028;5.670;2024-03-25T06:15:07;7.10;99.90
27559;DHT22;15002;52.028;5.670;2024-03-25T06:17:33;7.40;99.90
27559;DHT22;15002;52.028;5.670;2024-03-25T06:19:58;7.70;99.90
27559;DHT22;15002;52.028;5.670;2024-03-25T06:22:24;7.90;99.90
27559;DHT22;15002;52.028;5.670;2024-03-25T06:24:50;8.10;99.90
27559;DHT22;15002;52.028;5.670;2024-03-25T06:27:16;8.30;99.90
27559;DHT22;15002;52.028;5.670;2024-03-25T06:29:41;8.50;99.90
27559;DHT22;15002;52.028;5.670;2024-03-25T06:32:09;8.70;99.90
27559;DHT22;15002;52.028;5.670;2024-03-25T06:34:53;8.90;99.90
27559;DHT22;15002;52.028;5.670;2024-03-25T06:37:18;9.10;99.90
27559;DHT22;15002;52.028;5.670;2024-03-25T06:39:44;9.20;99.90
27559;DHT22;15002;52.028;5.670;2024-03-25T06:42:10;9.50;99.90
27559;DHT22;15002;52.028;5.670;2024-03-25T06:44:35;9.70;99.90
27559;DHT22;15002;52.028;5.670;2024-03-25T06:47:01;9.90;99.90
27559;DHT22;15002;52.028;5.670;2024-03-25T06:49:26;10.30;99.90
27559;DHT22;15002;52.028;5.670;2024-03-25T06:51:52;10.70;99.90
27559;DHT22;15002;52.028;5.670;2024-03-25T06:54:18;11.10;99.90
27559;DHT22;15002;52.028;5.670;2024-03-25T06:56:43;11.30;99.90
27559;DHT22;15002;52.028;5.670;2024-03-25T06:59:09;12.30;99.90
27559;DHT22;15002;52.028;5.670;2024-03-25T07:01:34;12.40;99.90
27559;DHT22;15002;52.028;5.670;2024-03-25T07:04:00;12.90;99.90
27559;DHT22;15002;52.028;5.670;2024-03-25T07:06:26;13.00;99.90
27559;DHT22;15002;52.028;5.670;2024-03-25T07:08:52;13.30;99.90
27559;DHT22;15002;52.028;5.670;2024-03-25T07:11:17;13.60;99.90
27559;DHT22;15002;52.028;5.670;2024-03-25T07:13:43;14.00;99.90
27559;DHT22;15002;52.028;5.670;2024-03-25T07:16:08;14.10;99.90
27559;DHT22;15002;52.028;5.670;2024-03-25T07:18:34;14.40;99.90
27559;DHT22;15002;52.028;5.670;2024-03-25T07:21:00;14.20;99.90
27559;DHT22;15002;52.028;5.670;2024-03-25T07:23:25;14.20;99.90
27559;DHT22;15002;52.028;5.670;2024-03-25T07:25:51;14.10;99.90
27559;DHT22;15002;52.028;5.670;2024-03-25T07:28:16;14.30;99.90
27559;DHT22;15002;52.028;5.670;2024-03-25T07:30:42;14.40;99.90
27559;DHT22;15002;52.028;5.670;2024-03-25T07:33:07;14.70;99.90
27559;DHT22;15002;52.028;5.670;2024-03-25T07:35:33;14.60;99.90
27559;DHT22;15002;52.028;5.670;2024-03-25T07:37:59;14.60;99.90
27559;DHT22;15002;52.028;5.670;2024-03-25T07:40:24;14.70;99.90
27559;DHT22;15002;52.028;5.670;2024-03-25T07:42:50;15.20;99.90
27559;DHT22;15002;52.028;5.670;2024-03-25T07:45:16;15.20;99.90
27559;DHT22;15002;52.028;5.670;2024-03-25T07:47:42;15.10;99.90
27559;DHT22;15002;52.028;5.670;2024-03-25T07:50:08;15.00;99.90
27559;DHT22;15002;52.028;5.670;2024-03-25T07:52:34;15.00;99.90
27559;DHT22;15002;52.028;5.670;2024-03-25T07:55:02;15.40;99.90
27559;DHT22;15002;52.028;5.670;2024-03-25T07:57:27;15.70;99.90
27559;DHT22;15002;52.028;5.670;2024-03-25T07:59:53;16.10;99.90
27559;DHT22;15002;52.028;5.670;2024-03-25T08:02:19;15.90;99.90
27559;DHT22;15002;52.028;5.670;2024-03-25T08:04:44;15.60;99.90
27559;DHT22;15002;52.028;5.670;2024-03-25T08:07:10;15.40;99.90
27559;DHT22;15002;52.028;5.670;2024-03-25T08:09:35;14.90;99.90
27559;DHT22;15002;52.028;5.670;2024-03-25T08:12:01;15.00;99.90
27559;DHT22;15002;52.028;5.670;2024-03-25T08:14:27;14.80;99.90
27559;DHT22;15002;52.028;5.670;2024-03-25T08:16:52;14.90;99.90
27559;DHT22;15002;52.028;5.670;2024-03-25T08:19:18;15.00;99.90
27559;DHT22;15002;52.028;5.670;2024-03-25T08:21:44;15.50;99.90
27559;DHT22;15002;52.028;5.670;2024-03-25T08:24:09;15.50;99.90
27559;DHT22;15002;52.028;5.670;2024-03-25T08:26:35;15.40;99.90
27559;DHT22;15002;52.028;5.670;2024-03-25T08:29:00;15.30;99.90
27559;DHT22;15002;52.028;5.670;2024-03-25T08:31:26;15.10;99.90
27559;DHT22;15002;52.028;5.670;2024-03-25T08:33:52;15.20;99.90
27559;DHT22;15002;52.028;5.670;2024-03-25T08:36:17;15.10;99.90
27559;DHT22;15002;52.028;5.670;2024-03-25T08:38:44;15.10;99.90
27559;DHT22;15002;52.028;5.670;2024-03-25T08:41:09;14.80;99.90
27559;DHT22;15002;52.028;5.670;2024-03-25T08:43:35;15.10;99.90
27559;DHT22;15002;52.028;5.670;2024-03-25T08:46:01;14.90;99.90
27559;DHT22;15002;52.028;5.670;2024-03-25T08:48:26;14.90;99.90
27559;DHT22;15002;52.028;5.670;2024-03-25T08:50:52;15.10;99.90
27559;DHT22;15002;52.028;5.670;2024-03-25T08:53:18;15.20;99.90
27559;DHT22;15002;52.028;5.670;2024-03-25T08:55:46;16.00;99.90
27559;DHT22;15002;52.028;5.670;2024-03-25T08:58:13;16.50;99.90
27559;DHT22;15002;52.028;5.670;2024-03-25T09:00:39;16.20;99.90
27559;DHT22;15002;52.028;5.670;2024-03-25T09:03:04;16.00;99.90
27559;DHT22;15002;52.028;5.670;2024-03-25T09:05:30;16.70;99.90
27559;DHT22;15002;52.028;5.670;2024-03-25T09:07:56;16.50;99.90
27559;DHT22;15002;52.028;5.670;2024-03-25T09:10:24;15.90;99.90
27559;DHT22;15002;52.028;5.670;2024-03-25T09:13:08;15.80;99.90
27559;DHT22;15002;52.028;5.670;2024-03-25T09:15:34;16.00;99.90
27559;DHT22;15002;52.028;5.670;2024-03-25T09:17:59;16.20;99.90
27559;DHT22;15002;52.028;5.670;2024-03-25T09:20:25;16.80;99.90
27559;DHT22;15002;52.028;5.670;2024-03-25T09:22:51;17.10;99.90
27559;DHT22;15002;52.028;5.670;2024-03-25T09:25:18;17.20;99.90
27559;DHT22;15002;52.028;5.670;2024-03-25T09:27:47;17.30;99.90
27559;DHT22;15002;52.028;5.670;2024-03-25T09:30:13;17.40;99.90
27559;DHT22;15002;52.028;5.670;2024-03-25T09:32:40;17.00;99.90
27559;DHT22;15002;52.028;5.670;2024-03-25T09:35:06;17.30;99.90
27559;DHT22;15002;52.028;5.670;2024-03-25T09:37:32;17.60;99.90
27559;DHT22;15002;52.028;5.670;2024-03-25T09:39:58;17.70;99.90
27559;DHT22;15002;52.028;5.670;2024-03-25T09:45:11;17.30;99.90
27559;DHT22;15002;52.028;5.670;2024-03-25T09:47:38;17.40;99.90
27559;DHT22;15002;52.028;5.670;2024-03-25T09:50:06;17.60;99.90
27559;DHT22;15002;52.028;5.670;2024-03-25T09:52:33;17.10;99.90
27559;DHT22;15002;52.028;5.670;2024-03-25T09:54:59;17.10;99.90
27559;DHT22;15002;52.028;5.670;2024-03-25T09:57:25;17.70;99.90
27559;DHT22;15002;52.028;5.670;2024-03-25T09:59:51;17.40;99.90
27559;DHT22;15002;52.028;5.670;2024-03-25T10:02:17;17.70;99.90
27559;DHT22;15002;52.028;5.670;2024-03-25T10:04:46;17.70;99.90
27559;DHT22;15002;52.028;5.670;2024-03-25T10:07:21;17.00;99.90
27559;DHT22;15002;52.028;5.670;2024-03-25T10:09:48;16.90;99.90
27559;DHT22;15002;52.028;5.670;2024-03-25T10:12:13;16.70;99.90
27559;DHT22;15002;52.028;5.670;2024-03-25T10:14:42;16.80;99.90
27559;DHT22;15002;52.028;5.670;2024-03-25T10:17:08;16.50;99.90
27559;DHT22;15002;52.028;5.670;2024-03-25T10:19:34;16.70;99.90
27559;DHT22;15002;52.028;5.670;2024-03-25T10:22:07;16.40;99.90
27559;DHT22;15002;52.028;5.670;2024-03-25T10:24:43;16.30;99.90
27559;DHT22;15002;52.028;5.670;2024-03-25T10:27:20;16.00;99.90
27559;DHT22;15002;52.028;5.670;2024-03-25T10:29:55;15.80;99.90
27559;DHT22;15002;52.028;5.670;2024-03-25T10:32:21;16.10;99.90
27559;DHT22;15002;52.028;5.670;2024-03-25T10:34:50;16.40;99.90
27559;DHT22;15002;52.028;5.670;2024-03-25T10:37:16;16.30;99.90
27559;DHT22;15002;52.028;5.670;2024-03-25T10:39:50;15.80;99.90
27559;DHT22;15002;52.028;5.670;2024-03-25T10:42:19;15.70;99.90
27559;DHT22;15002;52.028;5.670;2024-03-25T10:44:45;15.90;99.90
27559;DHT22;15002;52.028;5.670;2024-03-25T10:47:17;15.70;99.90
27559;DHT22;15002;52.028;5.670;2024-03-25T10:49:56;15.50;99.90
27559;DHT22;15002;52.028;5.670;2024-03-25T10:52:24;16.10;99.90
27559;DHT22;15002;52.028;5.670;2024-03-25T10:54:50;16.40;99.90
27559;DHT22;15002;52.028;5.670;2024-03-25T10:57:17;16.30;99.90
27559;DHT22;15002;52.028;5.670;2024-03-25T10:59:43;16.60;99.90
27559;DHT22;15002;52.028;5.670;2024-03-25T11:02:09;16.30;99.90
27559;DHT22;15002;52.028;5.670;2024-03-25T11:04:36;16.40;99.90
27559;DHT22;15002;52.028;5.670;2024-03-25T11:07:13;16.50;99.90
27559;DHT22;15002;52.028;5.670;2024-03-25T11:09:39;16.60;99.90
27559;DHT22;15002;52.028;5.670;2024-03-25T11:12:06;16.70;99.00
27559;DHT22;15002;52.028;5.670;2024-03-25T11:14:33;16.70;99.90
27559;DHT22;15002;52.028;5.670;2024-03-25T11:16:59;16.70;99.90
27559;DHT22;15002;52.028;5.670;2024-03-25T11:19:29;17.10;98.30
27559;DHT22;15002;52.028;5.670;2024-03-25T11:22:09;17.00;97.70
27559;DHT22;15002;52.028;5.670;2024-03-25T11:24:36;17.10;96.10
27559;DHT22;15002;52.028;5.670;2024-03-25T11:27:08;16.80;96.80
27559;DHT22;15002;52.028;5.670;2024-03-25T11:29:36;16.80;97.80
27559;DHT22;15002;52.028;5.670;2024-03-25T11:32:04;16.80;99.20
27559;DHT22;15002;52.028;5.670;2024-03-25T11:34:30;16.70;96.00
27559;DHT22;15002;52.028;5.670;2024-03-25T11:36:56;16.60;97.60
27559;DHT22;15002;52.028;5.670;2024-03-25T11:39:23;16.80;98.00
27559;DHT22;15002;52.028;5.670;2024-03-25T11:41:49;16.80;99.30
27559;DHT22;15002;52.028;5.670;2024-03-25T11:44:16;16.50;99.40
27559;DHT22;15002;52.028;5.670;2024-03-25T11:46:45;16.30;99.90
27559;DHT22;15002;52.028;5.670;2024-03-25T11:49:15;15.90;99.90
27559;DHT22;15002;52.028;5.670;2024-03-25T11:51:43;15.80;99.90
27559;DHT22;15002;52.028;5.670;2024-03-25T11:54:11;15.60;99.90
27559;DHT22;15002;52.028;5.670;2024-03-25T11:56:37;15.90;99.90
27559;DHT22;15002;52.028;5.670;2024-03-25T11:59:06;15.70;99.90
27559;DHT22;15002;52.028;5.670;2024-03-25T12:01:32;15.40;99.90
27559;DHT22;15002;52.028;5.670;2024-03-25T12:04:10;15.70;99.40
27559;DHT22;15002;52.028;5.670;2024-03-25T12:06:35;15.90;98.70
27559;DHT22;15002;52.028;5.670;2024-03-25T12:09:01;16.20;96.80
27559;DHT22;15002;52.028;5.670;2024-03-25T12:11:45;15.70;97.50
27559;DHT22;15002;52.028;5.670;2024-03-25T12:14:11;16.10;97.80
27559;DHT22;15002;52.028;5.670;2024-03-25T12:16:37;16.00;97.40
27559;DHT22;15002;52.028;5.670;2024-03-25T12:19:03;15.50;96.60
27559;DHT22;15002;52.028;5.670;2024-03-25T12:21:31;15.80;96.10
27559;DHT22;15002;52.028;5.670;2024-03-25T12:23:57;15.80;95.30
27559;DHT22;15002;52.028;5.670;2024-03-25T12:26:24;15.60;97.50
27559;DHT22;15002;52.028;5.670;2024-03-25T12:28:49;15.90;99.20
27559;DHT22;15002;52.028;5.670;2024-03-25T12:31:15;16.30;95.10
27559;DHT22;15002;52.028;5.670;2024-03-25T12:33:42;16.40;93.40
27559;DHT22;15002;52.028;5.670;2024-03-25T12:36:09;15.80;94.70
27559;DHT22;15002;52.028;5.670;2024-03-25T12:38:36;15.80;96.80
27559;DHT22;15002;52.028;5.670;2024-03-25T12:41:09;15.20;95.10
27559;DHT22;15002;52.028;5.670;2024-03-25T12:43:42;15.20;97.20
27559;DHT22;15002;52.028;5.670;2024-03-25T12:46:08;15.20;98.40
27559;DHT22;15002;52.028;5.670;2024-03-25T12:48:37;15.10;97.10
27559;DHT22;15002;52.028;5.670;2024-03-25T12:51:03;15.10;95.80
27559;DHT22;15002;52.028;5.670;2024-03-25T12:53:28;15.60;97.00
27559;DHT22;15002;52.028;5.670;2024-03-25T12:55:54;15.80;93.60
27559;DHT22;15002;52.028;5.670;2024-03-25T12:58:20;15.50;94.50
27559;DHT22;15002;52.028;5.670;2024-03-25T13:00:45;15.80;94.20
27559;DHT22;15002;52.028;5.670;2024-03-25T13:03:12;15.50;95.80
27559;DHT22;15002;52.028;5.670;2024-03-25T13:05:38;15.70;94.50
27559;DHT22;15002;52.028;5.670;2024-03-25T13:08:04;15.60;92.70
27559;DHT22;15002;52.028;5.670;2024-03-25T13:10:31;16.10;91.80
27559;DHT22;15002;52.028;5.670;2024-03-25T13:12:57;15.80;94.20
27559;DHT22;15002;52.028;5.670;2024-03-25T13:15:22;15.70;93.70
27559;DHT22;15002;52.028;5.670;2024-03-25T13:17:48;16.30;94.20
27559;DHT22;15002;52.028;5.670;2024-03-25T13:20:14;16.30;94.60
27559;DHT22;15002;52.028;5.670;2024-03-25T13:22:40;15.90;94.90
27559;DHT22;15002;52.028;5.670;2024-03-25T13:25:06;16.10;94.20
27559;DHT22;15002;52.028;5.670;2024-03-25T13:27:32;16.10;94.60
27559;DHT22;15002;52.028;5.670;2024-03-25T13:29:58;16.30;94.00
27559;DHT22;15002;52.028;5.670;2024-03-25T13:32:24;16.30;93.70
27559;DHT22;15002;52.028;5.670;2024-03-25T13:34:50;16.60;91.40
27559;DHT22;15002;52.028;5.670;2024-03-25T13:37:16;16.50;93.00
27559;DHT22;15002;52.028;5.670;2024-03-25T13:39:41;16.60;90.90
27559;DHT22;15002;52.028;5.670;2024-03-25T13:42:07;16.50;91.10
27559;DHT22;15002;52.028;5.670;2024-03-25T13:44:33;16.40;92.00
27559;DHT22;15002;52.028;5.670;2024-03-25T13:46:58;16.20;92.00
27559;DHT22;15002;52.028;5.670;2024-03-25T13:49:24;15.90;92.40
27559;DHT22;15002;52.028;5.670;2024-03-25T13:51:55;16.10;91.60
27559;DHT22;15002;52.028;5.670;2024-03-25T13:54:21;16.20;91.20
27559;DHT22;15002;52.028;5.670;2024-03-25T13:56:47;16.30;90.20
27559;DHT22;15002;52.028;5.670;2024-03-25T13:59:13;16.20;90.20
27559;DHT22;15002;52.028;5.670;2024-03-25T14:01:40;16.10;91.00
27559;DHT22;15002;52.028;5.670;2024-03-25T14:04:06;16.00;90.70
27559;DHT22;15002;52.028;5.670;2024-03-25T14:06:32;15.50;91.10
27559;DHT22;15002;52.028;5.670;2024-03-25T14:08:58;14.80;93.20
27559;DHT22;15002;52.028;5.670;2024-03-25T14:11:24;15.30;92.20
27559;DHT22;15002;52.028;5.670;2024-03-25T14:13:50;15.70;89.60
27559;DHT22;15002;52.028;5.670;2024-03-25T14:16:16;15.80;88.10
27559;DHT22;15002;52.028;5.670;2024-03-25T14:18:41;15.70;88.20
27559;DHT22;15002;52.028;5.670;2024-03-25T14:21:07;15.60;88.60
27559;DHT22;15002;52.028;5.670;2024-03-25T14:23:32;15.70;87.30
27559;DHT22;15002;52.028;5.670;2024-03-25T14:25:58;15.80;89.40
27559;DHT22;15002;52.028;5.670;2024-03-25T14:28:24;15.90;89.90
27559;DHT22;15002;52.028;5.670;2024-03-25T14:30:49;15.80;88.00
27559;DHT22;15002;52.028;5.670;2024-03-25T14:33:15;15.70;88.10
27559;DHT22;15002;52.028;5.670;2024-03-25T14:35:41;15.60;87.20
27559;DHT22;15002;52.028;5.670;2024-03-25T14:38:07;15.20;89.30
27559;DHT22;15002;52.028;5.670;2024-03-25T14:40:37;14.90;90.30
27559;DHT22;15002;52.028;5.670;2024-03-25T14:43:02;15.20;91.30
27559;DHT22;15002;52.028;5.670;2024-03-25T14:45:28;15.30;90.60
27559;DHT22;15002;52.028;5.670;2024-03-25T14:47:55;15.20;91.30
27559;DHT22;15002;52.028;5.670;2024-03-25T14:50:21;15.30;90.80
27559;DHT22;15002;52.028;5.670;2024-03-25T14:52:46;15.60;90.00
27559;DHT22;15002;52.028;5.670;2024-03-25T14:55:12;15.60;89.30
27559;DHT22;15002;52.028;5.670;2024-03-25T14:57:38;15.40;87.30
27559;DHT22;15002;52.028;5.670;2024-03-25T15:00:04;15.10;86.30
27559;DHT22;15002;52.028;5.670;2024-03-25T15:02:30;14.30;88.00
27559;DHT22;15002;52.028;5.670;2024-03-25T15:04:56;14.40;90.00
27559;DHT22;15002;52.028;5.670;2024-03-25T15:07:21;14.80;89.50
27559;DHT22;15002;52.028;5.670;2024-03-25T15:09:47;14.90;89.50
27559;DHT22;15002;52.028;5.670;2024-03-25T15:12:13;15.20;86.50
27559;DHT22;15002;52.028;5.670;2024-03-25T15:14:38;15.10;86.70
27559;DHT22;15002;52.028;5.670;2024-03-25T15:17:05;15.00;89.40
27559;DHT22;15002;52.028;5.670;2024-03-25T15:19:30;14.80;90.30
27559;DHT22;15002;52.028;5.670;2024-03-25T15:21:56;14.60;90.40
27559;DHT22;15002;52.028;5.670;2024-03-25T15:24:22;14.90;90.60
27559;DHT22;15002;52.028;5.670;2024-03-25T15:26:48;15.00;89.30
27559;DHT22;15002;52.028;5.670;2024-03-25T15:29:14;15.30;86.50
27559;DHT22;15002;52.028;5.670;2024-03-25T15:31:39;15.30;84.40
27559;DHT22;15002;52.028;5.670;2024-03-25T15:34:05;15.40;86.20